Impacts TAF Board
For situational awareness. Not to be used for flight planning purposes.
IDs:

KOLS - Nogales Intl, AZ, US

Issued at 0520 UTC 30 Oct 2020
Updated at 0758 UTC 30 Oct 2020
Potential Impact None Slight Moderate High
Time0754Z 30/08Z 30/09Z 30/10Z 30/11Z 30/12Z 30/13Z 30/14Z 30/15Z 30/16Z 30/17Z 30/18Z 30/19Z 30/20Z>>
Type OBS PRVL PRVL PRVL PRVL PRVL PRVL PRVL PRVL PRVL PRVL PRVL PRVL PRVL
VIS 10 >6 >6 >6 >6 >6 >6 >6 >6 >6 >6 >6 >6 >6
CIG -- -- -- -- -- -- -- -- -- -- -- -- -- --
Cover CLR FEW FEW FEW FEW FEW FEW FEW FEW FEW FEW SCT SCT SCT
FltCat VFR VFR VFR VFR VFR VFR VFR VFR VFR VFR VFR VFR VFR VFR
WX -- -- -- -- -- -- -- -- -- -- -- -- -- --
WDir 30 50 50 50 50 50 50 50 50 50 50 240 240 240
WSpd 7 5 5 5 5 5 5 5 5 5 5 7 7 7
WGst -- -- -- -- -- -- -- -- -- -- -- -- -- --
Raw TAF
KOLS 300520Z 3006/3106 05005KT P6SM FEW250
  FM301800 24007KT P6SM SCT250
  FM310200 06004KT P6SM FEW250


Raw METAR
KOLS 300754Z AUTO 03007KT 10SM CLR 12/M03 A3013 RMK AO2 SLP151 T01221028
KOLS 300654Z AUTO 05007KT 10SM CLR 13/M03 A3012 RMK AO2 SLP148 T01281033 402670044
KOLS 300554Z AUTO 05007KT 10SM CLR 15/M03 A3013 RMK AO2 SLP153 T01501033 10256 20139 53008
KOLS 300454Z AUTO 00000KT 10SM CLR 16/M04 A3013 RMK AO2 SLP151 T01611044

METAR Board
Radar Display
Forecast Discussion
For situational awareness. Not to be used for flight planning purposes.